createdAt,value
2023-04-12T00:07:22.818Z,97549.88
2023-04-12T00:27:27.111Z,97553.56
2023-04-12T00:47:30.964Z,97544.91
2023-04-12T01:07:33.925Z,97526.84
2023-04-12T01:27:36.826Z,97524.87
2023-04-12T01:47:40.658Z,97527.78
2023-04-12T02:07:43.563Z,97523.44
2023-04-12T02:27:46.441Z,97524.91
2023-04-12T02:47:49.355Z,97517.53
2023-04-12T03:07:52.123Z,97520.00
2023-04-12T03:27:54.809Z,97504.34
2023-04-12T03:47:57.563Z,97507.56
2023-04-12T04:08:02.394Z,97500.22
2023-04-12T04:28:05.268Z,97512.75
2023-04-12T04:48:09.046Z,97510.13
2023-04-12T05:08:12.204Z,97510.34
2023-04-12T05:28:15.573Z,97520.66
2023-04-12T05:48:20.114Z,97535.72
2023-04-12T06:08:23.005Z,97540.63
2023-04-12T06:28:25.910Z,97532.69
2023-04-12T06:48:28.826Z,97531.66
2023-04-12T07:08:31.815Z,97526.00
2023-04-12T07:28:34.443Z,97520.81
2023-04-12T07:48:37.637Z,97516.34
2023-04-12T08:08:40.590Z,97518.63
2023-04-12T08:28:43.218Z,97503.09
2023-04-12T08:48:47.042Z,97501.56
2023-04-12T09:08:49.791Z,97482.03
2023-04-12T09:28:52.496Z,97458.22
2023-04-12T09:48:55.462Z,97440.69
2023-04-12T10:08:58.731Z,97422.53
2023-04-12T10:29:01.690Z,97396.41
2023-04-12T10:49:04.676Z,97375.75
2023-04-12T11:09:08.658Z,97370.66
2023-04-12T11:29:11.344Z,97360.41
2023-04-12T11:49:14.116Z,97333.41
2023-04-12T12:09:16.786Z,97311.97
2023-04-12T12:29:20.407Z,97289.50
2023-04-12T12:49:23.325Z,97269.94
2023-04-12T13:09:26.017Z,97240.03
2023-04-12T13:29:28.694Z,97233.94
2023-04-12T13:49:31.590Z,97209.56
2023-04-12T14:09:35.614Z,97194.19
2023-04-12T14:29:38.577Z,97172.09
2023-04-12T14:49:41.403Z,97164.28
2023-04-12T15:09:45.479Z,97168.97
2023-04-12T15:29:48.573Z,97165.81
2023-04-12T15:49:55.756Z,97148.97
2023-04-12T16:09:58.640Z,97143.66
2023-04-12T16:30:01.697Z,97123.38
2023-04-12T16:50:05.633Z,97125.84
2023-04-12T17:10:08.412Z,97114.13
2023-04-12T17:30:11.137Z,97092.06
2023-04-12T17:50:14.243Z,97094.72
2023-04-12T18:10:20.480Z,97114.34
2023-04-12T18:30:23.926Z,97115.00
2023-04-12T18:50:26.729Z,97126.34
2023-04-12T19:10:32.079Z,97117.94
2023-04-12T19:30:34.797Z,97125.88
2023-04-12T19:50:37.668Z,97120.19
2023-04-12T20:10:40.492Z,97119.16
2023-04-12T20:30:44.002Z,97094.38
2023-04-12T20:50:47.069Z,97104.94
2023-04-12T21:10:49.827Z,97098.16
2023-04-12T21:30:56.376Z,97101.72
2023-04-12T21:50:59.291Z,97065.28
2023-04-12T22:11:02.700Z,97056.22
2023-04-12T22:31:05.575Z,97046.75
2023-04-12T22:51:08.453Z,97042.47
2023-04-12T23:11:11.367Z,97036.41
2023-04-12T23:31:14.277Z,97003.31
2023-04-12T23:51:18.230Z,96967.72
